Time,TemperatureF,DewpointF,PressureIn,WindDirection,WindDirectionDegrees,WindSpeedMPH,WindSpeedGustMPH,Humidity,HourlyPrecipIn,Conditions,Clouds,dailyrainin,SoftwareType,DateUTC
2013-04-07 01:03:00,52.7,51.0,30.17,SSW,204,1.0,7.0,93,0.00,,,0.00,weatherlink.com 1.10,2013-04-07 08:03:00,
2013-04-07 01:39:00,53.1,51.0,30.16,West,269,0.0,4.0,92,0.00,,,0.00,weatherlink.com 1.10,2013-04-07 08:39:00,
2013-04-07 01:57:00,53.2,51.0,30.16,SSW,194,2.0,6.0,92,0.00,,,0.00,weatherlink.com 1.10,2013-04-07 08:57:00,
2013-04-07 02:12:00,53.1,51.0,30.15,SSE,162,1.0,6.0,92,0.00,,,0.00,weatherlink.com 1.10,2013-04-07 09:12:00,
2013-04-07 02:27:00,53.1,51.0,30.15,SW,221,4.0,5.0,93,0.00,,,0.00,weatherlink.com 1.10,2013-04-07 09:27:00,
2013-04-07 02:42:00,53.0,51.0,30.15,SSW,201,3.0,4.0,93,0.00,,,0.00,weatherlink.com 1.10,2013-04-07 09:42:00,
2013-04-07 02:57:00,52.9,51.0,30.14,South,169,4.0,5.0,93,0.00,,,0.00,weatherlink.com 1.10,2013-04-07 09:57:00,
2013-04-07 03:12:00,52.8,51.0,30.13,SW,214,5.0,5.0,94,0.00,,,0.00,weatherlink.com 1.10,2013-04-07 10:12:00,
2013-04-07 03:27:00,52.8,51.0,30.13,SW,217,0.0,4.0,94,0.00,,,0.00,weatherlink.com 1.10,2013-04-07 10:27:00,
2013-04-07 03:42:00,52.8,51.0,30.12,SW,228,0.0,0.0,94,0.00,,,0.00,weatherlink.com 1.10,2013-04-07 10:42:00,
2013-04-07 03:57:00,52.8,51.0,30.12,SSW,207,0.0,0.0,94,0.00,,,0.00,weatherlink.com 1.10,2013-04-07 10:57:00,
2013-04-07 04:12:00,52.8,51.0,30.11,WSW,256,0.0,0.0,94,0.00,,,0.00,weatherlink.com 1.10,2013-04-07 11:12:00,
2013-04-07 04:27:00,52.7,51.0,30.11,South,173,0.0,0.0,95,0.00,,,0.00,weatherlink.com 1.10,2013-04-07 11:27:00,
2013-04-07 04:42:00,52.6,51.0,30.11,South,191,0.0,0.0,95,0.00,,,0.00,weatherlink.com 1.10,2013-04-07 11:42:00,
2013-04-07 04:57:00,52.7,51.0,30.11,WSW,243,0.0,0.0,95,0.00,,,0.00,weatherlink.com 1.10,2013-04-07 11:57:00,
2013-04-07 05:12:00,52.6,52.0,30.11,SSW,197,0.0,0.0,96,0.00,,,0.00,weatherlink.com 1.10,2013-04-07 12:12:00,
2013-04-07 05:27:00,52.5,51.0,30.11,SSW,196,0.0,0.0,96,0.00,,,0.00,weatherlink.com 1.10,2013-04-07 12:27:00,
2013-04-07 05:42:00,52.6,52.0,30.10,East,100,0.0,0.0,96,0.00,,,0.00,weatherlink.com 1.10,2013-04-07 12:42:00,
2013-04-07 05:57:00,52.7,52.0,30.10,East,101,0.0,0.0,97,0.00,,,0.00,weatherlink.com 1.10,2013-04-07 12:57:00,
2013-04-07 06:12:00,52.8,52.0,30.10,East,101,0.0,0.0,97,0.00,,,0.00,weatherlink.com 1.10,2013-04-07 13:12:00,
2013-04-07 06:27:00,52.7,52.0,30.10,East,100,0.0,0.0,97,0.00,,,0.00,weatherlink.com 1.10,2013-04-07 13:27:00,
2013-04-07 06:42:00,52.8,52.0,30.11,NNW,335,0.0,0.0,97,0.00,,,0.00,weatherlink.com 1.10,2013-04-07 13:42:00,
2013-04-07 06:57:00,52.8,52.0,30.11,NNW,336,0.0,0.0,97,0.00,,,0.00,weatherlink.com 1.10,2013-04-07 13:57:00,
2013-04-07 07:12:00,52.9,52.0,30.11,North,352,0.0,0.0,98,0.00,,,0.00,weatherlink.com 1.10,2013-04-07 14:12:00,
2013-04-07 07:27:00,53.0,53.0,30.11,East,86,0.0,0.0,98,0.00,,,0.00,weatherlink.com 1.10,2013-04-07 14:27:00,
2013-04-07 07:42:00,53.0,53.0,30.11,SSW,203,0.0,0.0,98,0.00,,,0.00,weatherlink.com 1.10,2013-04-07 14:42:00,
2013-04-07 07:57:00,53.2,53.0,30.11,South,176,0.0,0.0,98,0.00,,,0.00,weatherlink.com 1.10,2013-04-07 14:57:00,
2013-04-07 08:12:00,53.6,53.0,30.10,SSE,167,0.0,5.0,98,0.00,,,0.00,weatherlink.com 1.10,2013-04-07 15:12:00,
2013-04-07 08:27:00,54.0,53.0,30.10,SSW,195,0.0,7.0,97,0.00,,,0.00,weatherlink.com 1.10,2013-04-07 15:27:00,
2013-04-07 08:42:00,54.4,53.0,30.10,SSW,204,0.0,6.0,96,0.00,,,0.00,weatherlink.com 1.10,2013-04-07 15:42:00,
2013-04-07 08:57:00,54.7,53.0,30.09,SSE,165,1.0,7.0,95,0.00,,,0.00,weatherlink.com 1.10,2013-04-07 15:57:00,
2013-04-07 09:12:00,54.9,54.0,30.09,SSE,167,2.0,5.0,95,0.00,,,0.00,weatherlink.com 1.10,2013-04-07 16:12:00,
2013-04-07 09:27:00,55.3,54.0,30.09,SE,130,0.0,7.0,95,0.00,,,0.00,weatherlink.com 1.10,2013-04-07 16:27:00,
2013-04-07 09:42:00,55.6,54.0,30.10,SSW,197,3.0,8.0,95,0.00,,,0.00,weatherlink.com 1.10,2013-04-07 16:42:00,
2013-04-07 09:57:00,56.1,54.0,30.10,SW,217,0.0,7.0,94,0.00,,,0.00,weatherlink.com 1.10,2013-04-07 16:57:00,
2013-04-07 10:12:00,56.5,55.0,30.10,South,186,4.0,8.0,94,0.00,,,0.00,weatherlink.com 1.10,2013-04-07 17:12:00,
2013-04-07 10:28:00,57.0,55.0,30.10,SW,215,4.0,8.0,93,0.00,,,0.00,weatherlink.com 1.10,2013-04-07 17:28:00,
2013-04-07 10:43:00,57.4,55.0,30.10,SW,221,5.0,9.0,92,0.00,,,0.00,weatherlink.com 1.10,2013-04-07 17:43:00,
2013-04-07 10:58:00,57.8,56.0,30.10,SSW,207,4.0,7.0,92,0.00,,,0.00,weatherlink.com 1.10,2013-04-07 17:58:00,
2013-04-07 11:13:00,59.3,56.0,30.10,SSW,210,7.0,10.0,88,0.00,,,0.00,weatherlink.com 1.10,2013-04-07 18:13:00,
2013-04-07 11:28:00,61.4,56.0,30.09,West,259,4.0,13.0,81,0.00,,,0.00,weatherlink.com 1.10,2013-04-07 18:28:00,
2013-04-07 11:43:00,61.9,56.0,30.08,SSW,198,8.0,10.0,81,0.00,,,0.00,weatherlink.com 1.10,2013-04-07 18:43:00,
2013-04-07 11:58:00,61.3,55.0,30.08,SW,222,5.0,10.0,81,0.00,,,0.00,weatherlink.com 1.10,2013-04-07 18:58:00,
2013-04-07 12:13:00,61.9,56.0,30.08,WSW,245,7.0,9.0,80,0.00,,,0.00,weatherlink.com 1.10,2013-04-07 19:13:00,
2013-04-07 12:28:00,62.3,55.0,30.08,SSE,153,4.0,11.0,76,0.00,,,0.00,weatherlink.com 1.10,2013-04-07 19:28:00,
2013-04-07 12:43:00,62.7,55.0,30.06,SW,215,4.0,10.0,75,0.00,,,0.00,weatherlink.com 1.10,2013-04-07 19:43:00,
2013-04-07 12:58:00,62.3,54.0,30.05,South,169,9.0,15.0,74,0.00,,,0.00,weatherlink.com 1.10,2013-04-07 19:58:00,
2013-04-07 13:13:00,62.8,54.0,30.05,South,183,7.0,14.0,74,0.00,,,0.00,weatherlink.com 1.10,2013-04-07 20:13:00,
2013-04-07 13:28:00,62.6,53.0,30.05,SW,215,15.0,17.0,72,0.00,,,0.00,weatherlink.com 1.10,2013-04-07 20:28:00,
2013-04-07 13:43:00,62.8,54.0,30.04,SSW,201,4.0,15.0,73,0.00,,,0.00,weatherlink.com 1.10,2013-04-07 20:43:00,
2013-04-07 13:58:00,62.6,53.0,30.03,South,172,3.0,14.0,72,0.00,,,0.00,weatherlink.com 1.10,2013-04-07 20:58:00,
2013-04-07 14:13:00,62.8,53.0,30.02,WSW,255,3.0,15.0,71,0.00,,,0.00,weatherlink.com 1.10,2013-04-07 21:13:00,
2013-04-07 14:28:00,63.3,53.0,30.01,WSW,242,7.0,13.0,70,0.00,,,0.00,weatherlink.com 1.10,2013-04-07 21:28:00,
2013-04-07 14:43:00,62.8,53.0,30.02,West,277,6.0,18.0,70,0.00,,,0.00,weatherlink.com 1.10,2013-04-07 21:43:00,
2013-04-07 14:58:00,62.9,53.0,30.01,South,190,6.0,15.0,69,0.00,,,0.00,weatherlink.com 1.10,2013-04-07 21:58:00,
2013-04-07 15:13:00,62.5,51.0,30.00,SW,230,7.0,17.0,67,0.00,,,0.00,weatherlink.com 1.10,2013-04-07 22:13:00,
2013-04-07 15:28:00,61.9,51.0,30.00,SSW,204,3.0,15.0,67,0.00,,,0.00,weatherlink.com 1.10,2013-04-07 22:28:00,
2013-04-07 15:43:00,61.3,51.0,30.00,SW,218,5.0,15.0,69,0.00,,,0.00,weatherlink.com 1.10,2013-04-07 22:43:00,
2013-04-07 15:58:00,60.6,51.0,29.99,West,273,3.0,14.0,70,0.00,,,0.00,weatherlink.com 1.10,2013-04-07 22:58:00,
2013-04-07 16:13:00,60.6,51.0,29.99,WSW,257,7.0,19.0,70,0.00,,,0.00,weatherlink.com 1.10,2013-04-07 23:13:00,
2013-04-07 16:28:00,60.0,50.0,29.98,SW,222,6.0,14.0,70,0.00,,,0.00,weatherlink.com 1.10,2013-04-07 23:28:00,
2013-04-07 16:43:00,59.8,50.0,29.98,West,269,13.0,14.0,70,0.00,,,0.00,weatherlink.com 1.10,2013-04-07 23:43:00,
2013-04-07 17:28:00,58.4,49.0,29.96,SSW,201,4.0,15.0,71,0.00,,,0.00,weatherlink.com 1.10,2013-04-08 00:28:00,
2013-04-07 18:14:00,55.4,48.0,29.96,WSW,248,8.0,14.0,76,0.00,,,0.00,weatherlink.com 1.10,2013-04-08 01:14:00,
2013-04-07 18:44:00,54.0,47.0,29.96,NW,314,7.0,16.0,76,0.00,,,0.00,weatherlink.com 1.10,2013-04-08 01:44:00,
2013-04-07 19:14:00,53.4,47.0,29.94,NNE,23,4.0,11.0,79,0.00,,,0.00,weatherlink.com 1.10,2013-04-08 02:14:00,
2013-04-07 19:44:00,52.8,47.0,29.93,WSW,250,3.0,9.0,80,0.00,,,0.00,weatherlink.com 1.10,2013-04-08 02:44:00,
2013-04-07 19:59:00,51.9,48.0,29.91,SSW,193,3.0,10.0,85,0.00,,,0.00,weatherlink.com 1.10,2013-04-08 02:59:00,
2013-04-07 20:14:00,51.1,47.0,29.92,NNW,328,1.0,8.0,87,0.00,,,0.00,weatherlink.com 1.10,2013-04-08 03:14:00,
2013-04-07 20:29:00,51.0,48.0,29.92,SW,222,4.0,8.0,88,0.00,,,0.00,weatherlink.com 1.10,2013-04-08 03:29:00,
2013-04-07 20:44:00,50.7,48.0,29.91,SSW,198,2.0,6.0,89,0.00,,,0.00,weatherlink.com 1.10,2013-04-08 03:44:00,
2013-04-07 20:59:00,50.7,48.0,29.91,SW,236,5.0,8.0,90,0.00,,,0.00,weatherlink.com 1.10,2013-04-08 03:59:00,
2013-04-07 21:29:00,50.3,48.0,29.89,SW,219,7.0,7.0,93,0.00,,,0.00,weatherlink.com 1.10,2013-04-08 04:29:00,
2013-04-07 21:44:00,50.0,49.0,29.88,WNW,297,3.0,8.0,95,0.02,,,0.02,weatherlink.com 1.10,2013-04-08 04:44:00,
2013-04-07 21:59:00,49.8,49.0,29.86,SW,226,5.0,8.0,96,0.04,,,0.04,weatherlink.com 1.10,2013-04-08 04:59:00,
2013-04-07 22:14:00,49.6,49.0,29.85,SW,226,6.0,8.0,97,0.04,,,0.04,weatherlink.com 1.10,2013-04-08 05:14:00,
2013-04-07 22:29:00,49.7,49.0,29.84,South,191,4.0,7.0,97,0.05,,,0.05,weatherlink.com 1.10,2013-04-08 05:29:00,
2013-04-07 22:44:00,50.3,50.0,29.82,South,175,4.0,10.0,98,0.03,,,0.05,weatherlink.com 1.10,2013-04-08 05:44:00,
2013-04-07 22:59:00,50.9,50.0,29.82,SW,233,7.0,8.0,98,0.02,,,0.06,weatherlink.com 1.10,2013-04-08 05:59:00,
2013-04-07 23:14:00,51.3,50.0,29.82,WNW,293,6.0,14.0,96,0.02,,,0.06,weatherlink.com 1.10,2013-04-08 06:14:00,
2013-04-07 23:44:00,50.0,47.0,29.81,WNW,284,4.0,13.0,90,0.01,,,0.06,weatherlink.com 1.10,2013-04-08 06:44:00,
2013-04-07 23:59:00,49.3,47.0,29.81,NW,306,8.0,12.0,90,0.00,,,0.00,weatherlink.com 1.10,2013-04-08 06:59:00,